createdAt,value
2019-02-14T00:00:45.782Z,76.25
2019-02-14T00:05:49.585Z,75.58
2019-02-14T00:10:52.011Z,75.91
2019-02-14T00:15:54.991Z,75.34
2019-02-14T00:20:57.913Z,76.47
2019-02-14T00:26:00.189Z,76.02
2019-02-14T00:31:04.771Z,75.86
2019-02-14T00:36:10.062Z,76.64
2019-02-14T00:41:18.136Z,75.45
2019-02-14T00:46:23.213Z,75.41
2019-02-14T00:51:25.411Z,74.82
2019-02-14T00:56:28.467Z,74.59
2019-02-14T01:01:30.760Z,75.38
2019-02-14T01:06:34.401Z,75.78
2019-02-14T01:11:37.791Z,75.74
2019-02-14T01:16:41.277Z,75.92
2019-02-14T01:21:44.789Z,76.25
2019-02-14T01:26:50.362Z,76.22
2019-02-14T01:31:57.691Z,76.40
2019-02-14T01:37:00.265Z,76.15
2019-02-14T01:42:05.849Z,76.34
2019-02-14T01:47:10.867Z,76.53
2019-02-14T01:52:13.271Z,76.42
2019-02-14T01:57:18.328Z,75.51
2019-02-14T02:02:23.072Z,76.03
2019-02-14T02:07:28.041Z,76.19
2019-02-14T02:12:30.713Z,76.59
2019-02-14T02:17:34.233Z,76.74
2019-02-14T02:22:36.827Z,77.10
2019-02-14T02:27:39.122Z,76.98
2019-02-14T02:32:41.529Z,76.96
2019-02-14T02:37:43.705Z,76.80
2019-02-14T02:42:46.318Z,76.53
2019-02-14T02:47:48.902Z,76.74
2019-02-14T02:52:52.733Z,76.98
2019-02-14T02:57:54.962Z,76.52
2019-02-14T03:02:57.712Z,76.55
2019-02-14T03:07:59.911Z,76.29
2019-02-14T03:13:05.243Z,76.39
2019-02-14T03:18:07.245Z,76.53
2019-02-14T03:23:09.814Z,75.82
2019-02-14T03:28:12.411Z,75.97
2019-02-14T03:33:14.849Z,76.93
2019-02-14T03:38:17.301Z,76.39
2019-02-14T03:43:21.740Z,76.04
2019-02-14T03:48:24.021Z,76.74
2019-02-14T03:53:26.746Z,76.96
2019-02-14T03:58:29.530Z,77.51
2019-02-14T04:03:34.882Z,77.27
2019-02-14T04:08:37.196Z,77.64
2019-02-14T04:13:39.599Z,78.41
2019-02-14T04:18:45.122Z,77.59
2019-02-14T04:23:47.723Z,77.12
2019-02-14T04:28:50.207Z,77.98
2019-02-14T04:33:57.205Z,77.97
2019-02-14T04:39:02.263Z,77.85
2019-02-14T04:44:04.861Z,77.53
2019-02-14T04:49:07.147Z,77.62
2019-02-14T04:54:09.998Z,78.02
2019-02-14T04:59:15.420Z,78.50
2019-02-14T05:04:18.942Z,78.85
2019-02-14T05:09:21.229Z,78.66
2019-02-14T05:14:26.148Z,78.69
2019-02-14T05:19:28.555Z,79.34
2019-02-14T05:24:31.163Z,79.51
2019-02-14T05:29:33.439Z,78.79
2019-02-14T05:34:36.153Z,78.66
2019-02-14T05:39:42.010Z,79.33
2019-02-14T05:44:44.660Z,79.48
2019-02-14T05:49:48.735Z,78.97
2019-02-14T05:54:51.417Z,79.20
2019-02-14T05:59:53.643Z,79.33
2019-02-14T06:04:55.950Z,79.49
2019-02-14T06:09:58.166Z,80.02
2019-02-14T06:15:02.513Z,80.03
2019-02-14T06:20:07.386Z,79.84
2019-02-14T06:25:09.655Z,79.49
2019-02-14T06:30:12.396Z,79.66
2019-02-14T06:35:16.082Z,80.32
2019-02-14T06:40:22.366Z,80.33
2019-02-14T06:45:24.812Z,79.86
2019-02-14T06:50:34.578Z,79.82
2019-02-14T06:55:34.282Z,80.12
2019-02-14T07:00:36.703Z,79.77
2019-02-14T07:05:38.724Z,79.40
2019-02-14T07:10:42.572Z,78.64
2019-02-14T07:15:47.917Z,78.25
2019-02-14T07:20:52.095Z,78.55
2019-02-14T07:25:57.323Z,78.80
2019-02-14T07:31:01.824Z,77.62
2019-02-14T07:36:04.748Z,77.81
2019-02-14T07:41:07.034Z,77.25
2019-02-14T07:46:11.763Z,77.37
2019-02-14T07:51:14.066Z,76.76
2019-02-14T07:56:16.675Z,76.40
2019-02-14T08:01:19.727Z,76.67
2019-02-14T08:06:22.178Z,76.62
2019-02-14T08:11:25.752Z,75.13
2019-02-14T08:16:30.075Z,74.41
2019-02-14T08:21:32.413Z,74.47
2019-02-14T08:26:36.239Z,74.16
2019-02-14T08:31:38.514Z,73.11
2019-02-14T08:36:43.835Z,72.18
2019-02-14T08:41:45.926Z,71.93
2019-02-14T08:46:48.452Z,70.56
2019-02-14T08:51:55.928Z,70.41
2019-02-14T08:56:58.214Z,68.79
2019-02-14T09:02:02.550Z,69.32
2019-02-14T09:07:04.983Z,67.71
2019-02-14T09:12:09.174Z,66.95
2019-02-14T09:17:11.683Z,66.21
2019-02-14T09:22:13.856Z,66.08
2019-02-14T09:27:16.231Z,65.20
2019-02-14T09:32:22.356Z,64.68
2019-02-14T09:37:25.176Z,64.03
2019-02-14T09:42:29.401Z,63.24
2019-02-14T09:47:35.262Z,63.29
2019-02-14T09:52:37.543Z,63.18
2019-02-14T09:57:39.846Z,62.53
2019-02-14T10:02:41.890Z,61.54
2019-02-14T10:07:44.121Z,61.08
2019-02-14T10:12:46.538Z,60.27
2019-02-14T10:17:50.528Z,59.17
2019-02-14T10:22:52.770Z,58.40
2019-02-14T10:27:59.341Z,57.25
2019-02-14T10:33:01.762Z,57.35
2019-02-14T10:38:09.860Z,55.75
2019-02-14T10:43:12.106Z,56.02
2019-02-14T10:48:14.298Z,55.96
2019-02-14T10:53:19.450Z,55.54
2019-02-14T10:58:22.798Z,55.10
2019-02-14T11:03:25.435Z,55.30
2019-02-14T11:08:31.646Z,54.31
2019-02-14T11:13:31.947Z,55.16
2019-02-14T11:18:34.261Z,55.28
2019-02-14T11:23:36.680Z,54.83
2019-02-14T11:28:38.774Z,54.56
2019-02-14T11:33:43.592Z,54.94
2019-02-14T11:38:45.608Z,55.14
2019-02-14T11:43:50.630Z,55.06
2019-02-14T11:48:55.838Z,55.08
2019-02-14T11:53:58.566Z,54.85
2019-02-14T11:59:01.181Z,54.27
2019-02-14T12:04:03.599Z,54.68
2019-02-14T12:09:06.775Z,54.54
2019-02-14T12:14:10.168Z,54.14
2019-02-14T12:19:17.630Z,54.08
2019-02-14T12:24:22.474Z,53.38
2019-02-14T12:29:24.567Z,52.62
2019-02-14T12:34:26.903Z,53.07
2019-02-14T12:39:29.139Z,52.96
2019-02-14T12:44:35.016Z,53.13
2019-02-14T12:49:37.403Z,52.77
2019-02-14T12:54:39.851Z,52.17
2019-02-14T12:59:42.151Z,51.41
2019-02-14T13:04:44.147Z,50.99
2019-02-14T13:09:46.476Z,51.83
2019-02-14T13:14:48.681Z,52.70
2019-02-14T13:19:50.984Z,53.20
2019-02-14T13:24:53.197Z,51.86
2019-02-14T13:29:55.498Z,51.69
2019-02-14T13:34:58.051Z,51.05
2019-02-14T13:40:00.412Z,51.54
2019-02-14T13:45:03.052Z,51.92
2019-02-14T13:50:05.993Z,52.13
2019-02-14T13:55:08.622Z,52.87
2019-02-14T14:00:14.565Z,53.35
2019-02-14T14:05:18.587Z,51.77
2019-02-14T14:10:22.795Z,52.00
2019-02-14T14:15:25.564Z,52.86
2019-02-14T14:20:29.078Z,52.91
2019-02-14T14:25:31.798Z,52.91
2019-02-14T14:30:36.540Z,52.93
2019-02-14T14:35:40.392Z,52.89
2019-02-14T14:40:42.674Z,53.55
2019-02-14T14:46:08.282Z,54.30
2019-02-14T14:51:12.120Z,54.22
2019-02-14T14:56:14.792Z,54.62
2019-02-14T15:01:17.314Z,53.84
2019-02-14T15:30:51.654Z,54.63
2019-02-14T15:35:57.143Z,51.21
2019-02-14T15:41:01.734Z,51.81
2019-02-14T15:46:09.865Z,51.70
2019-02-14T15:51:15.668Z,51.44
2019-02-14T15:56:18.277Z,54.36
2019-02-14T16:01:20.293Z,55.45
2019-02-14T16:06:22.764Z,55.24
2019-02-14T16:11:25.106Z,56.48
2019-02-14T18:35:59.351Z,64.80
2019-02-14T18:41:14.316Z,63.25
2019-02-14T18:46:29.386Z,62.62
2019-02-14T18:51:44.490Z,62.41
2019-02-14T18:57:00.122Z,61.67
2019-02-14T19:07:17.894Z,63.53
2019-02-14T19:22:52.188Z,63.78
2019-02-14T19:28:00.976Z,62.59
2019-02-14T19:33:13.788Z,62.07
2019-02-14T19:38:29.931Z,63.01
2019-02-14T19:43:39.280Z,62.67
2019-02-14T19:48:48.287Z,63.08
2019-02-14T19:53:57.073Z,64.02
2019-02-14T19:59:07.099Z,63.79
2019-02-14T20:04:20.013Z,64.55
2019-02-14T20:09:36.057Z,64.72
2019-02-14T20:14:44.856Z,64.81
2019-02-14T20:19:55.182Z,63.51
2019-02-14T20:25:04.324Z,62.91
2019-02-14T20:30:13.478Z,61.94
2019-02-14T20:35:23.566Z,63.19
2019-02-14T20:40:38.623Z,62.65
2019-02-14T20:45:47.439Z,62.26
2019-02-14T20:50:58.548Z,62.11
2019-02-14T20:56:09.387Z,62.29
2019-02-14T21:01:18.310Z,62.51
2019-02-14T21:06:27.294Z,62.20
2019-02-14T21:11:35.916Z,61.85
2019-02-14T21:16:44.947Z,60.46
2019-02-14T21:21:54.150Z,60.46
2019-02-14T21:27:03.142Z,59.64
2019-02-14T21:32:12.161Z,59.51
2019-02-14T21:37:27.280Z,60.41
2019-02-14T21:42:35.452Z,59.78
2019-02-14T21:47:43.597Z,59.33
2019-02-14T21:52:52.539Z,59.85
2019-02-14T21:58:04.477Z,59.87
2019-02-14T22:03:12.620Z,59.10
2019-02-14T22:08:24.785Z,58.65
2019-02-14T22:13:38.725Z,58.47
2019-02-14T22:18:53.777Z,58.78
2019-02-14T22:24:08.852Z,58.64
2019-02-14T22:29:18.714Z,58.17
2019-02-14T22:34:27.738Z,58.34
2019-02-14T22:39:44.135Z,57.48
2019-02-14T22:44:53.128Z,57.09
2019-02-14T22:50:02.388Z,57.27
2019-02-14T22:55:14.708Z,57.01
2019-02-14T23:00:52.135Z,56.82
2019-02-14T23:06:01.070Z,56.83
2019-02-14T23:11:10.276Z,56.78
2019-02-14T23:16:18.931Z,58.08
2019-02-14T23:21:34.051Z,57.65
2019-02-14T23:26:48.287Z,57.00
2019-02-14T23:31:57.138Z,56.85
2019-02-14T23:37:12.931Z,57.29
2019-02-14T23:42:28.398Z,57.50
2019-02-14T23:47:37.385Z,57.19
2019-02-14T23:52:46.552Z,57.94
2019-02-14T23:57:55.564Z,57.47
